METARs

EEEI - Ämari Air Base

EEEI 221250Z 27010KT 240V300 9999 FEW030 FEW040TCU 19/11 Q1019 N

EEKA - Kärdla

EEKA 220750Z 33008KT 9999 BKN013 16/11 Q1020

EEKE - Kuressaare

EEKE 221550Z AUTO 34009KT 310V010 9999NDV NCD 19/12 Q1019

EEPU - Pärnu

EEPU 221250Z 00000KT 180V030 CAVOK 21/081 Q1018

EETN - Lennart Meri Tallinn

EETN 221550Z 33008KT 9999 FEW030 19/09 Q1019 NOSIG

EETU - Tartu

EETU 221550Z 05009KT 9999 -SHRA SCT048CB 17/10 Q1018

Sign In

ATC Booking

currently no ATC Bookings...